createdAt,value
2019-03-22T00:00:11.855Z,21.70
2019-03-22T00:02:40.475Z,23.73
2019-03-22T00:05:08.937Z,20.60
2019-03-22T00:07:37.475Z,22.80
2019-03-22T00:10:06.231Z,20.10
2019-03-22T00:12:34.798Z,19.20
2019-03-22T00:15:04.542Z,19.70
2019-03-22T00:17:33.034Z,20.50
2019-03-22T00:20:01.542Z,18.50
2019-03-22T00:22:30.101Z,19.67
2019-03-22T00:24:58.655Z,18.80
2019-03-22T00:27:27.142Z,19.30
2019-03-22T00:29:55.679Z,20.60
2019-03-22T00:32:24.200Z,21.50
2019-03-22T00:34:52.758Z,18.53
2019-03-22T00:37:21.352Z,19.20
2019-03-22T00:39:50.094Z,16.60
2019-03-22T00:42:18.704Z,19.70
2019-03-22T00:44:47.328Z,15.40
2019-03-22T00:47:15.932Z,16.60
2019-03-22T00:49:44.562Z,17.70
2019-03-22T00:52:13.082Z,15.67
2019-03-22T00:54:41.641Z,16.07
2019-03-22T00:57:10.120Z,16.73
2019-03-22T00:59:38.629Z,16.23
2019-03-22T01:02:07.176Z,16.33
2019-03-22T01:04:35.686Z,18.40
2019-03-22T01:07:04.330Z,15.63
2019-03-22T01:09:32.842Z,16.73
2019-03-22T01:12:01.418Z,17.20
2019-03-22T01:14:29.930Z,17.97
2019-03-22T01:16:58.492Z,17.70
2019-03-22T01:19:27.074Z,15.37
2019-03-22T01:21:55.557Z,16.03
2019-03-22T01:24:24.045Z,17.20
2019-03-22T01:26:52.526Z,15.70
2019-03-22T01:29:21.171Z,15.50
2019-03-22T01:31:49.691Z,15.80
2019-03-22T01:34:18.272Z,17.00
2019-03-22T01:36:46.743Z,15.53
2019-03-22T01:39:15.236Z,17.10
2019-03-22T01:41:43.792Z,18.77
2019-03-22T01:44:12.368Z,20.40
2019-03-22T01:46:40.937Z,19.40
2019-03-22T01:49:09.493Z,17.30
2019-03-22T01:51:38.082Z,18.30
2019-03-22T01:54:06.570Z,19.73
2019-03-22T01:56:35.144Z,17.17
2019-03-22T01:59:03.700Z,18.63
2019-03-22T02:01:32.299Z,18.40
2019-03-22T02:04:00.901Z,16.83
2019-03-22T02:06:29.542Z,19.93
2019-03-22T02:08:58.154Z,18.47
2019-03-22T02:11:26.779Z,18.47
2019-03-22T02:13:55.358Z,17.90
2019-03-22T02:16:23.988Z,20.60
2019-03-22T02:18:52.535Z,17.90
2019-03-22T02:21:21.137Z,16.83
2019-03-22T02:23:52.039Z,18.57
2019-03-22T02:26:19.820Z,19.27
2019-03-22T02:28:48.311Z,17.23
2019-03-22T02:31:16.822Z,18.80
2019-03-22T02:33:45.361Z,20.10
2019-03-22T02:36:13.964Z,18.20
2019-03-22T02:38:42.568Z,20.87
2019-03-22T02:41:11.221Z,19.53
2019-03-22T02:43:39.840Z,21.20
2019-03-22T02:46:08.455Z,22.00
2019-03-22T02:48:37.105Z,19.70
2019-03-22T02:51:05.561Z,20.07
2019-03-22T02:53:34.149Z,20.00
2019-03-22T02:56:02.839Z,21.97
2019-03-22T02:58:31.487Z,20.93
2019-03-22T03:00:59.996Z,20.10
2019-03-22T03:03:28.563Z,21.50
2019-03-22T03:05:57.109Z,21.93
2019-03-22T03:08:25.596Z,24.83
2019-03-22T03:10:54.080Z,24.83
2019-03-22T03:13:22.633Z,25.27
2019-03-22T03:15:51.165Z,25.90
2019-03-22T03:18:19.744Z,25.10
2019-03-22T03:20:48.238Z,25.00
2019-03-22T03:23:16.810Z,25.03
2019-03-22T03:25:45.386Z,24.63
2019-03-22T03:28:14.018Z,22.53
2019-03-22T03:30:42.621Z,22.43
2019-03-22T03:33:11.238Z,23.77
2019-03-22T03:35:39.928Z,22.93
2019-03-22T03:38:08.624Z,23.47
2019-03-22T03:40:37.362Z,23.47
2019-03-22T03:43:05.928Z,23.90
2019-03-22T03:45:36.104Z,24.30
2019-03-22T03:48:07.797Z,25.13
2019-03-22T03:50:36.419Z,22.47
2019-03-22T03:53:05.384Z,21.70
2019-03-22T03:55:34.018Z,22.17
2019-03-22T03:58:02.614Z,24.30
2019-03-22T04:00:31.164Z,23.57
2019-03-22T04:02:59.713Z,23.50
2019-03-22T04:05:28.235Z,22.70
2019-03-22T04:07:56.768Z,22.40
2019-03-22T04:10:25.438Z,21.93
2019-03-22T04:12:54.042Z,24.93
2019-03-22T04:15:22.569Z,23.50
2019-03-22T04:17:51.140Z,25.70
2019-03-22T04:20:19.656Z,24.47
2019-03-22T04:22:48.188Z,26.73
2019-03-22T04:25:16.709Z,25.37
2019-03-22T04:27:45.327Z,25.67
2019-03-22T04:30:14.089Z,25.03
2019-03-22T04:32:42.694Z,24.50
2019-03-22T04:35:11.766Z,23.50
2019-03-22T04:37:40.343Z,22.77
2019-03-22T04:40:25.107Z,22.63
2019-03-22T04:42:53.659Z,25.00
2019-03-22T04:45:24.541Z,26.70
2019-03-22T04:47:56.192Z,25.33
2019-03-22T04:50:27.262Z,27.50
2019-03-22T04:52:57.280Z,25.90
2019-03-22T04:55:25.992Z,25.50
2019-03-22T04:57:55.621Z,25.13
2019-03-22T05:00:24.453Z,22.60
2019-03-22T05:02:53.399Z,23.97
2019-03-22T05:05:22.007Z,26.00
2019-03-22T05:07:51.644Z,22.77
2019-03-22T05:10:21.923Z,24.77
2019-03-22T05:12:51.962Z,25.50
2019-03-22T05:15:21.472Z,25.27
2019-03-22T05:17:50.115Z,23.93
2019-03-22T05:20:21.517Z,26.17
2019-03-22T05:22:51.564Z,23.63
2019-03-22T05:25:22.071Z,27.83
2019-03-22T05:27:51.444Z,26.67
2019-03-22T05:30:58.212Z,23.83
2019-03-22T05:33:26.743Z,25.23
2019-03-22T05:35:55.293Z,24.93
2019-03-22T05:38:23.800Z,26.20
2019-03-22T05:40:52.268Z,26.87
2019-03-22T05:43:20.798Z,26.40
2019-03-22T05:45:49.267Z,27.33
2019-03-22T05:48:17.767Z,26.37
2019-03-22T05:50:46.342Z,27.63
2019-03-22T05:53:14.909Z,28.50
2019-03-22T05:55:43.596Z,28.47
2019-03-22T05:58:12.085Z,27.77
2019-03-22T06:00:40.662Z,27.80
2019-03-22T06:03:09.239Z,29.20
2019-03-22T06:05:37.864Z,26.30
2019-03-22T06:08:06.415Z,28.43
2019-03-22T06:10:34.943Z,28.53
2019-03-22T06:13:03.613Z,28.30
2019-03-22T06:15:32.246Z,25.50
2019-03-22T06:18:02.593Z,24.83
2019-03-22T06:20:31.138Z,25.60
2019-03-22T06:22:59.701Z,28.37
2019-03-22T06:25:28.305Z,30.43
2019-03-22T06:27:56.828Z,28.03
2019-03-22T06:30:25.328Z,30.27
2019-03-22T06:32:53.849Z,28.20
2019-03-22T06:35:22.413Z,28.80
2019-03-22T06:37:50.932Z,29.43
2019-03-22T06:40:19.477Z,28.70
2019-03-22T06:42:47.969Z,30.60
2019-03-22T06:45:16.533Z,32.90
2019-03-22T06:47:45.079Z,31.80
2019-03-22T06:50:13.576Z,32.83
2019-03-22T06:52:42.113Z,30.90
2019-03-22T06:55:10.755Z,34.13
2019-03-22T06:57:39.279Z,29.67
2019-03-22T07:00:10.439Z,30.83
2019-03-22T07:02:39.360Z,33.80
2019-03-22T07:05:08.058Z,32.90
2019-03-22T07:07:36.542Z,31.60
2019-03-22T07:10:09.083Z,33.60
2019-03-22T07:12:37.746Z,35.93
2019-03-22T07:15:07.656Z,27.57
2019-03-22T07:17:36.160Z,28.80
2019-03-22T07:20:06.990Z,30.13
2019-03-22T07:22:35.566Z,28.90
2019-03-22T07:25:05.946Z,28.87
2019-03-22T07:27:34.476Z,28.53
2019-03-22T07:30:05.073Z,29.90
2019-03-22T07:32:33.594Z,26.97
2019-03-22T07:35:02.147Z,31.07
2019-03-22T07:37:30.709Z,30.97
2019-03-22T07:39:59.192Z,33.13
2019-03-22T07:42:27.688Z,30.70
2019-03-22T07:44:56.163Z,32.63
2019-03-22T07:47:24.739Z,35.03
2019-03-22T07:49:53.219Z,31.80
2019-03-22T07:52:21.692Z,32.73
2019-03-22T07:54:50.428Z,31.93
2019-03-22T07:57:18.936Z,34.40
2019-03-22T07:59:47.591Z,33.10
2019-03-22T08:02:16.129Z,34.80
2019-03-22T08:04:44.633Z,37.10
2019-03-22T08:07:13.126Z,37.00
2019-03-22T08:09:41.842Z,41.10
2019-03-22T08:12:10.373Z,38.03
2019-03-22T08:14:38.986Z,37.37
2019-03-22T08:17:07.482Z,39.03
2019-03-22T08:19:36.052Z,39.60
2019-03-22T08:22:04.529Z,38.27
2019-03-22T08:24:33.130Z,39.23
2019-03-22T08:27:01.695Z,40.07
2019-03-22T08:29:30.245Z,39.50
2019-03-22T08:31:58.791Z,40.63
2019-03-22T08:34:27.343Z,38.60
2019-03-22T08:36:55.845Z,40.50
2019-03-22T08:39:24.428Z,41.07
2019-03-22T08:41:53.083Z,40.50
2019-03-22T08:44:21.609Z,43.70
2019-03-22T08:46:50.188Z,41.20
2019-03-22T08:49:18.828Z,39.37
2019-03-22T08:51:49.532Z,38.87
2019-03-22T08:54:17.676Z,42.00
2019-03-22T08:56:46.366Z,41.40
2019-03-22T08:59:14.967Z,42.43
2019-03-22T09:01:43.556Z,41.67
2019-03-22T09:04:12.145Z,42.87
2019-03-22T09:06:40.706Z,42.23
2019-03-22T09:09:09.352Z,39.43
2019-03-22T09:11:37.911Z,42.00
2019-03-22T09:14:06.467Z,41.47
2019-03-22T09:16:35.076Z,44.50
2019-03-22T09:19:03.660Z,43.07
2019-03-22T09:21:32.207Z,40.50
2019-03-22T09:24:00.829Z,40.40
2019-03-22T09:26:29.452Z,39.00
2019-03-22T09:28:58.039Z,42.87
2019-03-22T09:31:26.576Z,40.87
2019-03-22T09:33:55.055Z,40.13
2019-03-22T09:36:23.657Z,39.17
2019-03-22T09:38:52.368Z,41.80
2019-03-22T09:41:20.864Z,39.10
2019-03-22T09:43:49.420Z,40.27
2019-03-22T09:46:18.112Z,39.80
2019-03-22T09:48:46.723Z,40.37
2019-03-22T09:51:15.215Z,38.37
2019-03-22T09:53:43.787Z,40.67
2019-03-22T09:56:12.341Z,38.03
2019-03-22T09:58:40.917Z,37.43
2019-03-22T10:01:10.729Z,37.90
2019-03-22T10:03:42.471Z,37.40
2019-03-22T10:06:09.938Z,39.20
2019-03-22T10:08:38.562Z,40.03
2019-03-22T10:11:07.162Z,40.23
2019-03-22T10:13:35.715Z,39.40
2019-03-22T10:16:04.306Z,39.70
2019-03-22T10:18:32.894Z,38.10
2019-03-22T10:21:01.517Z,38.90
2019-03-22T10:23:30.128Z,40.53
2019-03-22T10:25:58.687Z,37.33
2019-03-22T10:28:28.418Z,35.13
2019-03-22T10:30:57.060Z,35.70
2019-03-22T10:33:25.639Z,38.07
2019-03-22T10:35:54.188Z,36.93
2019-03-22T10:38:30.900Z,35.40
2019-03-22T10:40:52.970Z,34.70
2019-03-22T10:43:21.559Z,35.50
2019-03-22T10:45:50.150Z,34.63
2019-03-22T10:48:18.700Z,34.87
2019-03-22T10:50:47.271Z,36.03
2019-03-22T10:53:15.874Z,36.67
2019-03-22T10:55:44.379Z,37.23
2019-03-22T10:58:20.718Z,36.60
2019-03-22T11:00:43.235Z,35.43
2019-03-22T11:03:11.864Z,35.97
2019-03-22T11:05:40.500Z,37.47
2019-03-22T11:08:09.305Z,34.53
2019-03-22T11:10:37.952Z,36.20
2019-03-22T11:13:06.474Z,34.27
2019-03-22T11:15:34.988Z,34.50
2019-03-22T11:18:03.592Z,36.43
2019-03-22T11:20:32.175Z,37.97
2019-03-22T11:23:00.643Z,35.77
2019-03-22T11:25:29.231Z,37.50
2019-03-22T11:27:57.803Z,36.03
2019-03-22T11:30:26.438Z,36.07
2019-03-22T11:32:55.010Z,37.10
2019-03-22T11:35:23.623Z,36.60
2019-03-22T11:37:52.132Z,35.37
2019-03-22T11:40:20.866Z,34.13
2019-03-22T11:42:51.432Z,36.03
2019-03-22T11:45:20.817Z,34.67
2019-03-22T11:47:49.504Z,33.67
2019-03-22T11:50:18.218Z,34.53
2019-03-22T11:52:46.701Z,34.03
2019-03-22T11:55:15.809Z,33.37
2019-03-22T11:57:44.436Z,31.83
2019-03-22T12:00:16.124Z,35.87
2019-03-22T12:02:44.796Z,33.87
2019-03-22T12:05:14.203Z,33.60
2019-03-22T12:07:42.813Z,32.80
2019-03-22T12:10:13.498Z,33.20
2019-03-22T12:12:41.967Z,34.30
2019-03-22T12:15:12.883Z,34.17
2019-03-22T12:17:41.523Z,33.80
2019-03-22T12:20:16.084Z,32.00
2019-03-22T12:22:44.706Z,31.23
2019-03-22T12:25:16.391Z,30.63
2019-03-22T12:27:44.965Z,32.00
2019-03-22T12:30:15.806Z,29.37
2019-03-22T12:32:44.439Z,31.13
2019-03-22T12:35:14.478Z,30.47
2019-03-22T12:37:43.340Z,33.27
2019-03-22T12:40:22.193Z,30.10
2019-03-22T12:42:52.677Z,29.17
2019-03-22T12:45:29.385Z,33.10
2019-03-22T12:47:58.020Z,30.60
2019-03-22T12:50:27.490Z,31.67
2019-03-22T12:53:02.015Z,32.50
2019-03-22T12:55:30.731Z,27.77
2019-03-22T12:57:59.578Z,31.60
2019-03-22T13:00:28.259Z,30.03
2019-03-22T13:02:57.383Z,28.90
2019-03-22T13:05:25.915Z,31.37
2019-03-22T13:07:54.467Z,31.53
2019-03-22T13:10:27.904Z,31.10
2019-03-22T13:12:56.875Z,30.63
2019-03-22T13:15:27.835Z,31.60
2019-03-22T13:17:56.406Z,31.30
2019-03-22T13:20:24.924Z,28.73
2019-03-22T13:22:53.489Z,33.60
2019-03-22T13:25:22.005Z,32.87
2019-03-22T13:27:50.652Z,34.93
2019-03-22T13:30:28.255Z,33.67
2019-03-22T13:32:56.845Z,32.77
2019-03-22T13:35:25.449Z,33.50
2019-03-22T13:37:53.950Z,33.93
2019-03-22T13:40:22.508Z,32.00
2019-03-22T13:42:51.138Z,32.53
2019-03-22T13:45:19.694Z,32.83
2019-03-22T13:47:48.283Z,32.20
2019-03-22T13:50:16.933Z,35.13
2019-03-22T13:52:45.496Z,34.67
2019-03-22T13:55:14.165Z,33.20
2019-03-22T13:57:42.775Z,32.83
2019-03-22T14:00:17.496Z,36.17
2019-03-22T14:02:46.210Z,34.97
2019-03-22T14:05:14.883Z,36.00
2019-03-22T14:07:43.464Z,34.83
2019-03-22T14:10:17.710Z,36.00
2019-03-22T14:12:46.244Z,34.30
2019-03-22T14:15:14.837Z,34.27
2019-03-22T14:17:43.455Z,34.27
2019-03-22T14:20:12.181Z,35.50
2019-03-22T14:22:40.771Z,35.17
2019-03-22T14:25:09.519Z,34.93
2019-03-22T14:27:38.110Z,35.73
2019-03-22T14:30:08.555Z,36.40
2019-03-22T14:32:37.446Z,34.20
2019-03-22T14:35:10.554Z,35.10
2019-03-22T14:37:39.168Z,34.80
2019-03-22T14:40:08.036Z,33.17
2019-03-22T14:42:36.625Z,33.80
2019-03-22T14:45:10.179Z,33.47
2019-03-22T14:47:38.672Z,33.43
2019-03-22T14:50:07.250Z,32.40
2019-03-22T14:52:35.874Z,35.60
2019-03-22T14:55:05.877Z,32.93
2019-03-22T14:57:34.492Z,32.20
2019-03-22T15:00:03.921Z,32.70
2019-03-22T15:02:32.445Z,33.77
2019-03-22T15:05:00.942Z,32.20
2019-03-22T15:07:29.571Z,34.73
2019-03-22T15:09:58.132Z,31.37
2019-03-22T15:12:26.810Z,34.63
2019-03-22T15:15:06.069Z,32.13
2019-03-22T15:17:42.174Z,33.17
2019-03-22T15:20:12.897Z,32.00
2019-03-22T15:22:43.110Z,30.27
2019-03-22T15:25:33.528Z,33.17
2019-03-22T15:28:08.852Z,33.53
2019-03-22T15:30:47.810Z,34.60
2019-03-22T15:33:34.205Z,32.77
2019-03-22T15:36:04.800Z,32.30
2019-03-22T15:38:44.222Z,34.60
2019-03-22T15:41:12.949Z,33.13
2019-03-22T15:43:41.627Z,31.10
2019-03-22T15:46:10.177Z,35.67
2019-03-22T15:48:38.764Z,33.20
2019-03-22T15:51:07.398Z,33.23
2019-03-22T15:53:36.055Z,32.07
2019-03-22T15:56:04.708Z,31.53
2019-03-22T15:58:33.346Z,31.30
2019-03-22T16:01:01.830Z,29.57
2019-03-22T16:03:32.416Z,30.47
2019-03-22T16:06:00.718Z,29.40
2019-03-22T16:08:29.317Z,30.40
2019-03-22T16:10:57.945Z,31.60
2019-03-22T16:13:26.581Z,31.63
2019-03-22T16:15:55.177Z,28.90
2019-03-22T16:18:23.762Z,29.17
2019-03-22T16:20:59.768Z,26.90
2019-03-22T16:23:22.576Z,28.03
2019-03-22T16:25:51.191Z,27.27
2019-03-22T16:28:19.713Z,29.23
2019-03-22T16:30:48.326Z,27.27
2019-03-22T16:33:16.901Z,27.40
2019-03-22T16:35:45.572Z,26.83
2019-03-22T16:38:14.092Z,27.33
2019-03-22T16:40:42.734Z,28.80
2019-03-22T16:43:11.307Z,26.90
2019-03-22T16:45:41.481Z,27.50
2019-03-22T16:48:10.374Z,27.00
2019-03-22T16:50:39.013Z,25.97
2019-03-22T16:53:07.649Z,25.23
2019-03-22T16:55:36.232Z,25.43
2019-03-22T16:58:05.398Z,26.00
2019-03-22T17:00:34.114Z,26.80
2019-03-22T17:03:02.727Z,25.63
2019-03-22T17:05:31.311Z,26.67
2019-03-22T17:07:59.934Z,25.90
2019-03-22T17:10:28.495Z,25.30
2019-03-22T17:12:57.121Z,24.13
2019-03-22T17:15:25.708Z,24.53
2019-03-22T17:17:54.203Z,25.57
2019-03-22T17:20:22.794Z,26.47
2019-03-22T17:22:51.468Z,24.37
2019-03-22T17:25:20.068Z,26.40
2019-03-22T17:27:48.639Z,25.40
2019-03-22T17:30:17.418Z,28.53
2019-03-22T17:32:45.983Z,24.80
2019-03-22T17:35:14.633Z,26.60
2019-03-22T17:37:43.214Z,26.67
2019-03-22T17:40:12.338Z,25.87
2019-03-22T17:42:41.703Z,25.30
2019-03-22T17:45:15.819Z,26.70
2019-03-22T17:47:44.497Z,25.90
2019-03-22T17:50:14.197Z,26.17
2019-03-22T17:52:42.918Z,26.77
2019-03-22T17:55:11.985Z,26.37
2019-03-22T17:57:40.539Z,27.50
2019-03-22T18:00:15.700Z,28.33
2019-03-22T18:02:44.233Z,26.17
2019-03-22T18:05:13.143Z,27.23
2019-03-22T18:07:41.718Z,26.60
2019-03-22T18:10:11.748Z,29.13
2019-03-22T18:12:40.369Z,28.90
2019-03-22T18:15:13.266Z,26.47
2019-03-22T18:17:41.847Z,27.50
2019-03-22T18:20:12.332Z,27.50
2019-03-22T18:22:40.895Z,27.93
2019-03-22T18:25:10.740Z,29.10
2019-03-22T18:27:39.416Z,26.13
2019-03-22T18:30:10.250Z,28.00
2019-03-22T18:32:38.833Z,27.70
2019-03-22T18:35:08.786Z,26.60
2019-03-22T18:37:37.389Z,28.10
2019-03-22T18:40:08.977Z,26.00
2019-03-22T18:42:37.578Z,29.23
2019-03-22T18:45:08.751Z,29.70
2019-03-22T18:47:37.294Z,27.10
2019-03-22T18:50:10.851Z,28.37
2019-03-22T18:52:39.502Z,29.73
2019-03-22T18:55:08.607Z,29.63
2019-03-22T18:57:37.210Z,29.70
2019-03-22T19:00:14.066Z,28.90
2019-03-22T19:02:42.689Z,29.10
2019-03-22T19:05:11.621Z,27.53
2019-03-22T19:07:40.218Z,28.73
2019-03-22T19:10:10.824Z,30.30
2019-03-22T19:12:39.500Z,28.93
2019-03-22T19:15:13.414Z,29.27
2019-03-22T19:17:42.249Z,31.30
2019-03-22T19:20:12.917Z,32.00
2019-03-22T19:22:41.609Z,30.23
2019-03-22T19:25:10.381Z,31.13
2019-03-22T19:27:38.974Z,32.53
2019-03-22T19:30:10.377Z,32.20
2019-03-22T19:32:38.986Z,34.83
2019-03-22T19:35:10.048Z,33.67
2019-03-22T19:37:38.817Z,36.10
2019-03-22T19:40:09.397Z,31.30
2019-03-22T19:42:38.484Z,36.53
2019-03-22T19:45:10.020Z,36.23
2019-03-22T19:47:38.730Z,35.83
2019-03-22T19:50:16.367Z,36.77
2019-03-22T19:52:45.117Z,36.87
2019-03-22T19:55:14.288Z,36.83
2019-03-22T19:57:42.950Z,37.40
2019-03-22T20:00:15.987Z,38.27
2019-03-22T20:02:44.653Z,37.60
2019-03-22T20:05:17.590Z,36.87
2019-03-22T20:07:46.424Z,40.10
2019-03-22T20:10:18.021Z,40.10
2019-03-22T20:12:46.695Z,38.67
2019-03-22T20:15:15.465Z,38.77
2019-03-22T20:17:46.508Z,37.50
2019-03-22T20:20:15.446Z,39.97
2019-03-22T20:22:44.662Z,36.80
2019-03-22T20:25:13.480Z,40.13
2019-03-22T20:27:42.471Z,37.37
2019-03-22T20:30:13.524Z,40.10
2019-03-22T20:32:42.444Z,41.80
2019-03-22T20:35:16.299Z,40.00
2019-03-22T20:37:43.455Z,38.47
2019-03-22T20:40:17.669Z,38.80
2019-03-22T20:42:46.752Z,39.80
2019-03-22T20:45:23.593Z,38.70
2019-03-22T20:47:46.191Z,41.57
2019-03-22T20:50:17.404Z,42.60
2019-03-22T20:52:49.143Z,40.60
2019-03-22T20:55:19.419Z,40.17
2019-03-22T20:57:48.373Z,40.10
2019-03-22T21:00:17.910Z,40.40
2019-03-22T21:02:46.729Z,39.03
2019-03-22T21:05:26.103Z,39.03
2019-03-22T21:07:46.420Z,41.57
2019-03-22T21:10:15.233Z,39.93
2019-03-22T21:12:44.265Z,41.20
2019-03-22T21:15:23.585Z,41.90
2019-03-22T21:17:44.082Z,42.27
2019-03-22T21:20:14.119Z,40.93
2019-03-22T21:22:43.172Z,39.60
2019-03-22T21:25:13.335Z,41.13
2019-03-22T21:27:42.302Z,40.20
2019-03-22T21:30:15.591Z,41.97
2019-03-22T21:32:45.570Z,40.67
2019-03-22T21:35:22.475Z,39.00
2019-03-22T21:37:45.159Z,40.00
2019-03-22T21:40:14.411Z,40.43
2019-03-22T21:42:43.347Z,39.90
2019-03-22T21:45:12.308Z,42.77
2019-03-22T21:47:41.211Z,41.67
2019-03-22T21:50:10.916Z,44.57
2019-03-22T21:52:39.485Z,41.67
2019-03-22T21:55:08.896Z,41.13
2019-03-22T21:57:37.992Z,41.93
2019-03-22T22:00:09.063Z,43.07
2019-03-22T22:02:37.680Z,41.60
2019-03-22T22:05:07.218Z,41.53
2019-03-22T22:07:35.856Z,40.47
2019-03-22T22:10:09.463Z,40.60
2019-03-22T22:15:19.285Z,40.70
2019-03-22T22:17:47.894Z,38.93
2019-03-22T22:20:16.492Z,39.83
2019-03-22T22:22:45.071Z,39.37
2019-03-22T22:25:13.868Z,40.27
2019-03-22T22:27:42.429Z,40.50
2019-03-22T22:30:12.134Z,38.90
2019-03-22T22:32:40.718Z,39.27
2019-03-22T22:35:09.937Z,42.70
2019-03-22T22:37:38.615Z,39.73
2019-03-22T22:40:08.599Z,38.77
2019-03-22T22:42:37.293Z,41.50
2019-03-22T22:45:07.201Z,41.00
2019-03-22T22:47:37.446Z,40.50
2019-03-22T22:50:07.234Z,40.53
2019-03-22T22:52:36.004Z,40.80
2019-03-22T22:55:05.696Z,39.40
2019-03-22T22:57:34.180Z,39.83
2019-03-22T23:00:02.924Z,40.00
2019-03-22T23:02:31.486Z,41.87
2019-03-22T23:05:00.067Z,40.13
2019-03-22T23:07:28.682Z,39.20
2019-03-22T23:09:57.272Z,41.90
2019-03-22T23:12:25.928Z,43.93
2019-03-22T23:14:54.605Z,39.57
2019-03-22T23:17:23.169Z,39.50
2019-03-22T23:19:51.761Z,42.87
2019-03-22T23:22:20.300Z,43.37
2019-03-22T23:24:48.880Z,41.27
2019-03-22T23:27:17.398Z,38.57
2019-03-22T23:29:45.962Z,41.53
2019-03-22T23:32:14.468Z,42.50
2019-03-22T23:34:43.075Z,40.73
2019-03-22T23:37:11.587Z,41.50
2019-03-22T23:39:40.190Z,39.47
2019-03-22T23:42:08.739Z,38.27
2019-03-22T23:44:37.288Z,40.67
2019-03-22T23:47:05.883Z,42.27
2019-03-22T23:49:34.493Z,42.60
2019-03-22T23:52:03.059Z,42.87
2019-03-22T23:54:31.604Z,40.17
2019-03-22T23:57:00.222Z,39.80
2019-03-22T23:59:28.802Z,40.67
